Time;durP1;ratioP1;P1;durP2;ratioP2;P2;SDS_P1;SDS_P2;PMS_P1;PMS_P2;Temp;Humidity;BMP_temperature;BMP_pressure;BME280_temperature;BME280_humidity;BME280_pressure;Samples;Min_cycle;Max_cycle;Signal;HPM_P1;HPM_P2
2022/04/15 00:01:23;;;;;;;;;;;13.70;63.70;;;;;;5113388;28;19918;-72
2022/04/15 00:03:49;;;;;;;;;;;13.70;63.30;;;;;;5113600;28;19916;-72
2022/04/15 00:06:15;;;;;;;;;;;13.60;64.00;;;;;;5119512;28;19918;-72
2022/04/15 00:08:41;;;;;;;;;;;13.60;67.30;;;;;;5112638;28;19999;-72
2022/04/15 00:11:07;;;;;;;;;;;13.60;66.70;;;;;;5112901;28;19916;-72
2022/04/15 00:13:33;;;;;;;;;;;13.50;66.60;;;;;;5115035;28;19912;-72
2022/04/15 00:15:59;;;;;;;;;;;13.50;65.50;;;;;;5094054;28;19915;-72
2022/04/15 00:18:25;;;;;;;;;;;13.50;66.00;;;;;;5075112;28;19908;-72
2022/04/15 00:20:52;;;;;;;;;;;13.40;65.10;;;;;;5099196;28;19908;-72
2022/04/15 00:23:18;;;;;;;;;;;13.40;65.70;;;;;;5091675;28;19912;-72
2022/04/15 00:25:44;;;;;;;;;;;13.40;65.50;;;;;;5101488;28;20003;-72
2022/04/15 00:28:10;;;;;;;;;;;13.30;65.70;;;;;;5098575;28;19912;-72
2022/04/15 00:30:36;;;;;;;;;;;13.30;65.30;;;;;;5111426;28;19919;-72
2022/04/15 00:33:01;;;;;;;;;;;13.30;65.40;;;;;;5109187;28;19920;-72
2022/04/15 00:35:27;;;;;;;;;;;13.20;65.60;;;;;;5119059;28;19908;-72
2022/04/15 00:37:53;;;;;;;;;;;13.20;65.60;;;;;;5119072;28;19919;-72
2022/04/15 00:40:18;;;;;;;;;;;13.10;67.10;;;;;;5117733;28;19915;-72
2022/04/15 00:42:44;;;;;;;;;;;13.10;66.50;;;;;;5115543;28;19912;-72
2022/04/15 00:45:10;;;;;;;;;;;13.10;69.30;;;;;;5098898;28;19908;-72
2022/04/15 00:47:38;;;;;;;;;;;13.10;70.60;;;;;;5108990;28;20006;-72
2022/04/15 00:50:04;;;;;;;;;;;13.00;68.60;;;;;;5112962;28;19916;-72
2022/04/15 00:52:33;;;;;;;;;;;13.00;68.00;;;;;;5113832;28;19908;-72
2022/04/15 00:55:01;;;;;;;;;;;13.00;68.00;;;;;;5118419;28;20006;-72
2022/04/15 00:57:29;;;;;;;;;;;12.90;66.90;;;;;;5119031;28;19912;-72
2022/04/15 00:59:57;;;;;;;;;;;12.90;67.00;;;;;;5107298;28;19915;-72
2022/04/15 01:02:23;;;;;;;;;;;12.80;67.00;;;;;;5108114;28;20254;-72
2022/04/15 01:04:51;;;;;;;;;;;12.70;66.80;;;;;;5118785;28;19908;-72
2022/04/15 01:07:19;;;;;;;;;;;12.70;66.80;;;;;;5118950;28;19919;-72
2022/04/15 01:09:47;;;;;;;;;;;12.70;66.70;;;;;;5118530;28;19915;-72
2022/04/15 01:12:13;;;;;;;;;;;12.60;66.60;;;;;;5118130;28;20014;-72
2022/04/15 01:14:39;;;;;;;;;;;12.60;66.60;;;;;;5112254;28;19961;-72
2022/04/15 01:17:05;;;;;;;;;;;12.60;66.70;;;;;;5102062;28;19916;-72
2022/04/15 01:19:30;;;;;;;;;;;12.50;67.00;;;;;;5117009;28;19915;-72
2022/04/15 01:22:01;;;;;;;;;;;12.50;67.10;;;;;;5118033;28;20373;-72
2022/04/15 01:24:28;;;;;;;;;;;12.40;67.30;;;;;;5117605;28;20254;-72
2022/04/15 01:26:54;;;;;;;;;;;12.40;67.40;;;;;;5114166;28;20484;-72
2022/04/15 01:29:19;;;;;;;;;;;12.40;67.60;;;;;;5117317;28;19911;-72
2022/04/15 01:31:45;;;;;;;;;;;12.30;67.70;;;;;;5112213;28;20293;-72
2022/04/15 01:34:10;;;;;;;;;;;12.30;67.80;;;;;;5079264;28;19973;-72
2022/04/15 01:36:36;;;;;;;;;;;12.20;67.70;;;;;;5098076;28;19911;-72
2022/04/15 01:39:02;;;;;;;;;;;12.20;67.20;;;;;;5096699;28;20382;-72
2022/04/15 01:41:27;;;;;;;;;;;12.20;67.40;;;;;;5097418;28;19908;-72
2022/04/15 01:43:53;;;;;;;;;;;12.10;67.60;;;;;;5097397;28;19935;-72
2022/04/15 01:46:19;;;;;;;;;;;12.10;66.80;;;;;;5097534;28;19908;-72
2022/04/15 01:48:44;;;;;;;;;;;12.10;66.50;;;;;;5097544;28;19912;-72
2022/04/15 01:51:10;;;;;;;;;;;12.00;67.20;;;;;;5095483;28;19920;-72
2022/04/15 01:53:35;;;;;;;;;;;12.00;67.50;;;;;;5082452;28;19916;-72
2022/04/15 01:56:01;;;;;;;;;;;12.00;67.10;;;;;;5093124;28;20314;-72
2022/04/15 01:58:27;;;;;;;;;;;11.90;67.20;;;;;;5080374;28;19955;-72
2022/04/15 02:00:52;;;;;;;;;;;11.90;67.40;;;;;;5113027;28;19919;-72
2022/04/15 02:03:18;;;;;;;;;;;11.90;67.60;;;;;;5082428;28;19939;-72
2022/04/15 02:05:43;;;;;;;;;;;11.90;67.60;;;;;;5092393;28;20358;-72
2022/04/15 02:08:09;;;;;;;;;;;11.80;67.70;;;;;;5103410;28;19915;-72
2022/04/15 02:10:35;;;;;;;;;;;11.80;67.70;;;;;;5115928;28;19948;-72
2022/04/15 02:13:00;;;;;;;;;;;11.70;67.90;;;;;;5110573;28;20013;-72
2022/04/15 02:15:26;;;;;;;;;;;11.70;68.20;;;;;;5077944;28;19913;-72
2022/04/15 02:17:54;;;;;;;;;;;11.70;68.40;;;;;;5096991;28;19912;-72
2022/04/15 02:20:19;;;;;;;;;;;11.60;68.70;;;;;;5096739;28;19918;-70
2022/04/15 02:22:45;;;;;;;;;;;11.60;68.60;;;;;;5092694;28;19909;-70
2022/04/15 02:25:11;;;;;;;;;;;11.60;68.70;;;;;;5096518;28;19908;-70
2022/04/15 02:27:36;;;;;;;;;;;11.50;68.50;;;;;;5095353;28;19951;-70
2022/04/15 02:30:02;;;;;;;;;;;11.50;68.80;;;;;;5106198;28;19912;-70
2022/04/15 02:32:29;;;;;;;;;;;11.50;69.00;;;;;;5114267;28;19927;-70
2022/04/15 02:34:55;;;;;;;;;;;11.50;69.00;;;;;;5107875;28;19959;-71
2022/04/15 02:37:21;;;;;;;;;;;11.40;69.00;;;;;;5113034;28;20430;-70
2022/04/15 02:39:48;;;;;;;;;;;11.40;68.80;;;;;;5086828;28;19916;-70
2022/04/15 02:42:14;;;;;;;;;;;11.30;68.80;;;;;;5096610;28;19919;-70
2022/04/15 02:44:39;;;;;;;;;;;11.30;69.00;;;;;;5097147;28;19908;-71
2022/04/15 02:47:07;;;;;;;;;;;11.20;68.70;;;;;;5089456;28;19959;-70
2022/04/15 02:49:32;;;;;;;;;;;11.20;68.50;;;;;;5097382;28;20378;-70
2022/04/15 02:51:58;;;;;;;;;;;11.20;68.80;;;;;;5096929;28;19996;-71
2022/04/15 02:54:24;;;;;;;;;;;11.20;71.20;;;;;;5107726;28;19908;-71
2022/04/15 02:56:49;;;;;;;;;;;11.20;71.30;;;;;;5103356;28;19995;-70
2022/04/15 02:59:16;;;;;;;;;;;11.20;71.90;;;;;;5100686;28;19923;-71
2022/04/15 03:01:42;;;;;;;;;;;11.20;71.80;;;;;;5100453;28;19908;-70
2022/04/15 03:04:08;;;;;;;;;;;11.20;71.10;;;;;;5100833;28;19912;-70
2022/04/15 03:06:34;;;;;;;;;;;11.20;69.80;;;;;;5100607;28;19915;-70
2022/04/15 03:08:59;;;;;;;;;;;11.10;71.10;;;;;;5102341;28;19912;-71
2022/04/15 03:11:25;;;;;;;;;;;11.20;72.60;;;;;;5109290;28;19930;-70
2022/04/15 03:13:50;;;;;;;;;;;11.10;70.40;;;;;;5120547;28;20382;-70
2022/04/15 03:16:16;;;;;;;;;;;11.10;72.90;;;;;;5096521;28;19974;-71
2022/04/15 03:18:42;;;;;;;;;;;11.10;73.20;;;;;;5113464;28;20002;-70
2022/04/15 03:21:08;;;;;;;;;;;11.10;71.10;;;;;;5087379;28;19969;-70
2022/04/15 03:23:33;;;;;;;;;;;11.10;69.40;;;;;;5096490;28;20344;-71
2022/04/15 03:25:59;;;;;;;;;;;11.00;69.50;;;;;;5102111;28;19915;-71
2022/04/15 03:28:25;;;;;;;;;;;11.00;72.10;;;;;;5119085;28;19912;-70
2022/04/15 03:30:51;;;;;;;;;;;11.10;74.40;;;;;;5110250;28;19941;-70
2022/04/15 03:33:17;;;;;;;;;;;11.10;75.60;;;;;;5109265;28;20014;-70
2022/04/15 03:35:42;;;;;;;;;;;11.00;73.70;;;;;;5119806;28;19975;-70
2022/04/15 03:38:08;;;;;;;;;;;11.00;71.60;;;;;;5119777;28;20415;-70
2022/04/15 03:40:34;;;;;;;;;;;11.00;73.50;;;;;;5118983;28;19969;-70
2022/04/15 03:42:59;;;;;;;;;;;10.90;73.50;;;;;;5120450;28;19908;-70
2022/04/15 03:45:25;;;;;;;;;;;10.90;73.70;;;;;;5119864;28;19957;-70
2022/04/15 03:47:52;;;;;;;;;;;10.90;72.80;;;;;;5098877;28;19912;-70
2022/04/15 03:50:18;;;;;;;;;;;10.90;72.20;;;;;;5088922;28;19934;-70
2022/04/15 03:52:46;;;;;;;;;;;10.80;71.90;;;;;;5115580;28;19933;-70
2022/04/15 03:55:15;;;;;;;;;;;10.80;71.70;;;;;;5116097;28;19913;-70
2022/04/15 03:57:41;;;;;;;;;;;10.70;71.50;;;;;;5110460;28;19912;-70
2022/04/15 04:00:10;;;;;;;;;;;10.70;72.00;;;;;;5119670;28;20385;-70
2022/04/15 04:02:35;;;;;;;;;;;10.70;71.80;;;;;;5091368;28;19918;-70
2022/04/15 04:05:01;;;;;;;;;;;10.60;72.20;;;;;;5119319;28;19911;-70
2022/04/15 04:07:27;;;;;;;;;;;10.60;72.00;;;;;;5118105;28;20002;-70
2022/04/15 04:09:53;;;;;;;;;;;10.60;73.40;;;;;;5119222;28;19916;-70
2022/04/15 04:12:18;;;;;;;;;;;10.50;71.40;;;;;;5119697;28;19938;-70
2022/04/15 04:14:44;;;;;;;;;;;10.50;72.40;;;;;;5112900;28;19957;-70
2022/04/15 04:17:09;;;;;;;;;;;10.50;73.10;;;;;;5117925;28;19912;-70
2022/04/15 04:19:36;;;;;;;;;;;10.50;74.30;;;;;;5119111;28;19973;-70
2022/04/15 04:22:02;;;;;;;;;;;10.50;73.30;;;;;;5090334;28;19920;-69
2022/04/15 04:24:28;;;;;;;;;;;10.50;75.60;;;;;;5114829;28;19914;-70
2022/04/15 04:26:54;;;;;;;;;;;10.50;77.80;;;;;;5118154;28;19912;-69
2022/04/15 04:29:19;;;;;;;;;;;10.50;76.90;;;;;;5118394;28;19920;-70
2022/04/15 04:31:45;;;;;;;;;;;10.40;76.30;;;;;;5115327;28;20336;-70
2022/04/15 04:34:10;;;;;;;;;;;10.50;76.20;;;;;;5105144;28;19920;-70
2022/04/15 04:36:36;;;;;;;;;;;10.40;75.60;;;;;;5119104;28;20408;-70
2022/04/15 04:39:02;;;;;;;;;;;10.40;76.20;;;;;;5081902;28;20386;-70
2022/04/15 04:41:28;;;;;;;;;;;10.40;76.80;;;;;;5098375;28;20004;-70
2022/04/15 04:43:53;;;;;;;;;;;10.40;77.00;;;;;;5088410;28;19940;-70
2022/04/15 04:46:19;;;;;;;;;;;10.40;77.40;;;;;;5097946;28;19958;-70
2022/04/15 04:48:45;;;;;;;;;;;10.40;78.90;;;;;;5094660;28;19916;-70
2022/04/15 04:51:10;;;;;;;;;;;10.30;77.60;;;;;;5096851;28;19912;-70
2022/04/15 04:53:36;;;;;;;;;;;10.30;77.10;;;;;;5095216;28;19912;-69
2022/04/15 04:56:02;;;;;;;;;;;10.30;77.70;;;;;;5098354;28;20277;-70
2022/04/15 04:58:27;;;;;;;;;;;10.20;75.80;;;;;;5098021;28;19908;-70
2022/04/15 05:00:53;;;;;;;;;;;10.20;76.50;;;;;;5095669;28;19908;-70
2022/04/15 05:03:18;;;;;;;;;;;10.20;78.00;;;;;;5098389;28;19943;-70
2022/04/15 05:05:44;;;;;;;;;;;10.20;76.90;;;;;;5098685;28;19994;-69
2022/04/15 05:08:09;;;;;;;;;;;10.20;75.10;;;;;;5083063;28;19912;-70
2022/04/15 05:10:35;;;;;;;;;;;10.20;74.10;;;;;;5097903;28;19980;-69
2022/04/15 05:13:01;;;;;;;;;;;10.10;73.40;;;;;;5113659;28;19915;-70
2022/04/15 05:15:26;;;;;;;;;;;10.00;72.80;;;;;;5103589;28;20319;-69
2022/04/15 05:17:52;;;;;;;;;;;10.00;72.50;;;;;;5106389;28;19912;-70
2022/04/15 05:20:18;;;;;;;;;;;10.00;72.50;;;;;;5117866;28;19998;-69
2022/04/15 05:22:44;;;;;;;;;;;10.00;72.10;;;;;;5118279;28;19943;-70
2022/04/15 05:25:10;;;;;;;;;;;9.90;71.70;;;;;;5113969;28;19920;-69
2022/04/15 05:27:36;;;;;;;;;;;10.00;71.20;;;;;;5103498;28;20301;-69
2022/04/15 05:30:02;;;;;;;;;;;9.90;71.80;;;;;;5107724;28;19946;-69
2022/04/15 05:32:28;;;;;;;;;;;9.90;71.40;;;;;;5109882;28;20386;-69
2022/04/15 05:34:54;;;;;;;;;;;9.90;71.70;;;;;;5110004;28;19934;-69
2022/04/15 05:37:19;;;;;;;;;;;9.90;72.40;;;;;;5113706;28;20437;-70
2022/04/15 05:39:45;;;;;;;;;;;9.90;72.80;;;;;;5107194;28;19912;-69
2022/04/15 05:42:11;;;;;;;;;;;9.90;72.90;;;;;;5107296;28;20003;-70
2022/04/15 05:44:36;;;;;;;;;;;9.90;73.00;;;;;;5113157;28;19916;-69
2022/04/15 05:47:02;;;;;;;;;;;9.90;73.00;;;;;;5113637;28;19927;-70
2022/04/15 05:49:27;;;;;;;;;;;9.90;73.10;;;;;;5106100;28;20289;-70
2022/04/15 05:51:53;;;;;;;;;;;9.90;73.30;;;;;;5079777;28;20390;-70
2022/04/15 05:54:19;;;;;;;;;;;9.90;73.00;;;;;;5102036;28;19924;-69
2022/04/15 05:56:45;;;;;;;;;;;9.90;72.80;;;;;;5092488;28;19916;-70
2022/04/15 05:59:10;;;;;;;;;;;9.90;72.80;;;;;;5105551;28;19911;-69
2022/04/15 06:01:36;;;;;;;;;;;9.90;73.00;;;;;;5116512;28;19919;-69
2022/04/15 06:04:02;;;;;;;;;;;9.90;73.00;;;;;;5117144;28;19912;-69
2022/04/15 06:06:27;;;;;;;;;;;10.00;73.30;;;;;;5079621;28;19929;-69
2022/04/15 06:08:53;;;;;;;;;;;10.00;73.10;;;;;;5093801;28;19912;-68
2022/04/15 06:11:19;;;;;;;;;;;10.00;73.00;;;;;;5097100;28;19916;-69
2022/04/15 06:13:47;;;;;;;;;;;10.00;73.00;;;;;;5097483;28;20370;-67
2022/04/15 06:16:17;;;;;;;;;;;10.10;72.90;;;;;;5088387;28;19977;-68
2022/04/15 06:18:43;;;;;;;;;;;10.10;72.50;;;;;;5097061;28;19912;-74
2022/04/15 06:21:08;;;;;;;;;;;10.10;72.10;;;;;;5116785;28;19916;-71
2022/04/15 06:23:34;;;;;;;;;;;10.20;73.10;;;;;;5117655;28;19925;-69
2022/04/15 06:25:59;;;;;;;;;;;10.20;72.50;;;;;;5115661;28;19912;-68
2022/04/15 06:28:25;;;;;;;;;;;10.30;72.10;;;;;;5117400;28;19908;-71
2022/04/15 06:30:51;;;;;;;;;;;10.30;71.40;;;;;;5118572;28;19920;-70
2022/04/15 06:33:19;;;;;;;;;;;10.40;71.50;;;;;;5115146;28;19928;-71
2022/04/15 06:35:46;;;;;;;;;;;10.40;71.60;;;;;;5121203;28;19912;-72
2022/04/15 06:38:11;;;;;;;;;;;10.50;71.30;;;;;;5120115;28;19966;-68
2022/04/15 06:40:38;;;;;;;;;;;10.50;71.00;;;;;;5115523;28;19916;-67
2022/04/15 06:43:04;;;;;;;;;;;10.60;70.90;;;;;;5093616;28;20349;-69
2022/04/15 06:45:30;;;;;;;;;;;10.60;70.50;;;;;;5092734;28;19920;-70
2022/04/15 06:47:55;;;;;;;;;;;10.70;71.80;;;;;;5095102;28;19934;-71
2022/04/15 06:50:21;;;;;;;;;;;10.80;72.10;;;;;;5085229;28;19913;-72
2022/04/15 06:52:47;;;;;;;;;;;10.80;72.30;;;;;;5095778;28;19919;-71
2022/04/15 06:55:13;;;;;;;;;;;10.90;73.30;;;;;;5097847;28;20366;-71
2022/04/15 06:57:38;;;;;;;;;;;11.00;76.60;;;;;;5095823;28;19931;-69
2022/04/15 07:00:05;;;;;;;;;;;11.10;76.40;;;;;;5099401;28;19939;-72
2022/04/15 07:02:31;;;;;;;;;;;11.20;74.30;;;;;;5099902;28;19924;-70
2022/04/15 07:04:56;;;;;;;;;;;11.20;73.30;;;;;;5100650;28;19916;-69
2022/04/15 07:07:22;;;;;;;;;;;11.30;73.40;;;;;;5112725;28;19934;-69
2022/04/15 07:09:51;;;;;;;;;;;11.40;73.30;;;;;;5116263;28;19916;-69
2022/04/15 07:12:17;;;;;;;;;;;11.60;73.50;;;;;;5108752;28;19962;-70
2022/04/15 07:14:43;;;;;;;;;;;11.70;74.20;;;;;;5094231;28;19911;-71
2022/04/15 07:17:09;;;;;;;;;;;11.90;74.30;;;;;;5099321;28;20285;-71
2022/04/15 07:19:35;;;;;;;;;;;12.00;74.80;;;;;;5077496;28;19913;-69
2022/04/15 07:22:01;;;;;;;;;;;12.20;75.50;;;;;;5099553;28;19927;-69
2022/04/15 07:24:27;;;;;;;;;;;12.40;76.20;;;;;;5120203;28;20408;-69
2022/04/15 07:26:53;;;;;;;;;;;12.70;77.70;;;;;;5108326;28;20382;-69
2022/04/15 07:29:20;;;;;;;;;;;13.50;79.60;;;;;;5099915;28;20011;-69
2022/04/15 07:31:46;;;;;;;;;;;14.40;80.30;;;;;;5109848;28;20011;-70
2022/04/15 07:34:12;;;;;;;;;;;15.30;79.40;;;;;;5113426;28;20483;-70
2022/04/15 07:39:04;;;;;;;;;;;16.40;78.90;;;;;;5113616;28;19912;-70
2022/04/15 07:41:30;;;;;;;;;;;17.00;78.10;;;;;;5094553;28;19982;-70
2022/04/15 07:43:55;;;;;;;;;;;17.60;77.50;;;;;;5106923;28;19912;-70
2022/04/15 07:46:21;;;;;;;;;;;18.20;75.70;;;;;;5119411;28;20711;-70
2022/04/15 07:48:47;;;;;;;;;;;18.60;75.10;;;;;;5116476;28;19920;-70
2022/04/15 07:51:12;;;;;;;;;;;19.00;74.30;;;;;;5109940;28;19915;-70
2022/04/15 07:53:38;;;;;;;;;;;19.50;73.50;;;;;;5103501;28;19919;-71
2022/04/15 07:56:04;;;;;;;;;;;19.90;73.10;;;;;;5108684;28;19919;-72
2022/04/15 07:58:30;;;;;;;;;;;20.40;72.30;;;;;;5116561;28;19994;-72
2022/04/15 08:00:59;;;;;;;;;;;20.80;69.10;;;;;;5108964;28;19947;-71
2022/04/15 08:03:28;;;;;;;;;;;21.00;67.60;;;;;;5117902;28;19912;-71
2022/04/15 08:05:54;;;;;;;;;;;21.00;67.10;;;;;;5115552;28;20392;-72
2022/04/15 08:08:20;;;;;;;;;;;21.00;68.20;;;;;;5118498;28;19907;-72
2022/04/15 08:10:47;;;;;;;;;;;21.50;69.50;;;;;;5105365;28;19986;-71
2022/04/15 08:13:12;;;;;;;;;;;22.00;68.10;;;;;;5097621;28;20370;-71
2022/04/15 08:15:38;;;;;;;;;;;22.70;66.30;;;;;;5090012;28;19912;-72
2022/04/15 08:18:04;;;;;;;;;;;23.10;64.50;;;;;;5102671;28;19915;-72
2022/04/15 08:20:30;;;;;;;;;;;23.30;64.10;;;;;;5098447;28;20289;-72
2022/04/15 08:22:55;;;;;;;;;;;23.60;63.10;;;;;;5117135;28;19912;-73
2022/04/15 08:25:21;;;;;;;;;;;24.10;61.60;;;;;;5117352;28;19916;-73
2022/04/15 08:27:46;;;;;;;;;;;24.50;60.80;;;;;;5100272;28;19923;-73
2022/04/15 08:30:12;;;;;;;;;;;24.70;61.10;;;;;;5098846;28;19916;-73
2022/04/15 08:32:38;;;;;;;;;;;25.00;60.70;;;;;;5108191;28;19927;-73
2022/04/15 08:35:04;;;;;;;;;;;25.40;61.40;;;;;;5119229;28;19912;-73
2022/04/15 08:37:30;;;;;;;;;;;25.90;61.30;;;;;;5118729;28;19916;-73
2022/04/15 08:39:56;;;;;;;;;;;26.40;60.70;;;;;;5117068;28;19957;-73
2022/04/15 08:42:22;;;;;;;;;;;27.00;60.10;;;;;;5088008;28;19916;-73
2022/04/15 08:44:49;;;;;;;;;;;27.50;59.90;;;;;;5119002;28;19961;-73
2022/04/15 08:47:15;;;;;;;;;;;28.10;58.30;;;;;;5117760;28;20368;-72
2022/04/15 08:49:41;;;;;;;;;;;28.50;58.10;;;;;;5119030;28;19908;-72
2022/04/15 08:52:11;;;;;;;;;;;28.90;57.60;;;;;;5111570;28;19916;-72
2022/04/15 08:54:37;;;;;;;;;;;29.40;56.60;;;;;;5118739;28;19911;-72
2022/04/15 08:57:03;;;;;;;;;;;29.90;53.90;;;;;;5117458;28;20427;-72
2022/04/15 08:59:28;;;;;;;;;;;30.20;55.30;;;;;;5118789;28;19912;-72
2022/04/15 09:01:54;;;;;;;;;;;30.60;56.20;;;;;;5118111;28;20419;-72
2022/04/15 09:04:20;;;;;;;;;;;30.90;55.10;;;;;;5117273;28;19912;-72
2022/04/15 09:06:45;;;;;;;;;;;31.20;54.70;;;;;;5118392;28;19912;-72
2022/04/15 09:09:12;;;;;;;;;;;31.60;55.20;;;;;;5118536;28;19911;-72
2022/04/15 09:11:39;;;;;;;;;;;31.90;54.10;;;;;;5117291;28;19965;-72
2022/04/15 09:14:10;;;;;;;;;;;32.30;52.80;;;;;;5114452;28;19908;-72
2022/04/15 09:16:40;;;;;;;;;;;32.40;52.60;;;;;;5115768;28;19919;-72
2022/04/15 09:19:07;;;;;;;;;;;32.60;52.00;;;;;;5109378;28;19939;-72
2022/04/15 09:21:32;;;;;;;;;;;33.00;53.10;;;;;;5117667;28;19938;-71
2022/04/15 09:23:58;;;;;;;;;;;33.30;51.80;;;;;;5117349;28;19915;-72
2022/04/15 09:26:25;;;;;;;;;;;33.60;51.70;;;;;;5116437;28;19916;-72
2022/04/15 09:28:52;;;;;;;;;;;33.90;52.50;;;;;;5118144;28;19912;-72
2022/04/15 09:31:19;;;;;;;;;;;34.10;49.90;;;;;;5117339;28;19959;-71
2022/04/15 09:33:55;;;;;;;;;;;34.30;51.10;;;;;;5089838;28;20437;-72
2022/04/15 09:36:24;;;;;;;;;;;34.50;50.40;;;;;;5066437;28;19999;-72
2022/04/15 09:38:54;;;;;;;;;;;34.80;49.20;;;;;;5093322;28;20412;-72
2022/04/15 09:41:21;;;;;;;;;;;34.90;50.20;;;;;;5096789;28;20357;-72
2022/04/15 09:43:49;;;;;;;;;;;35.20;49.50;;;;;;5105752;28;19946;-72
2022/04/15 09:46:14;;;;;;;;;;;35.40;49.70;;;;;;5078785;28;19912;-69
2022/04/15 09:48:40;;;;;;;;;;;35.50;48.40;;;;;;5096905;28;19920;-71
2022/04/15 09:51:06;;;;;;;;;;;35.70;47.50;;;;;;5096163;28;19916;-71
2022/04/15 09:53:34;;;;;;;;;;;35.80;47.90;;;;;;5087916;28;20007;-71
2022/04/15 09:56:01;;;;;;;;;;;36.00;48.20;;;;;;5096144;28;19916;-71
2022/04/15 09:58:31;;;;;;;;;;;36.20;48.70;;;;;;5094003;28;19920;-70
2022/04/15 10:00:58;;;;;;;;;;;36.50;48.60;;;;;;5104582;28;20306;-71
2022/04/15 10:03:25;;;;;;;;;;;36.70;46.50;;;;;;5109029;28;19912;-71
2022/04/15 10:05:51;;;;;;;;;;;36.90;46.50;;;;;;5114690;28;19912;-71
2022/04/15 10:08:20;;;;;;;;;;;37.00;46.80;;;;;;5119088;28;19916;-71
2022/04/15 10:10:46;;;;;;;;;;;37.10;46.30;;;;;;5112412;28;19966;-71
2022/04/15 10:13:13;;;;;;;;;;;37.20;46.80;;;;;;5112699;28;19912;-73
2022/04/15 10:15:40;;;;;;;;;;;37.50;47.00;;;;;;5099129;28;19916;-72
2022/04/15 10:18:06;;;;;;;;;;;37.70;46.80;;;;;;5101825;28;19912;-72
2022/04/15 10:20:32;;;;;;;;;;;37.90;45.50;;;;;;5084147;28;20389;-72
2022/04/15 10:23:03;;;;;;;;;;;37.90;44.50;;;;;;5100633;28;19912;-68
2022/04/15 10:25:29;;;;;;;;;;;37.90;45.60;;;;;;5100179;28;19912;-69
2022/04/15 10:28:11;;;;;;;;;;;38.00;44.80;;;;;;5099256;28;20380;-72
2022/04/15 10:30:38;;;;;;;;;;;38.10;43.40;;;;;;5105836;28;20002;-71
2022/04/15 10:33:03;;;;;;;;;;;38.20;43.90;;;;;;5111539;28;19920;-71
2022/04/15 10:35:30;;;;;;;;;;;38.20;42.30;;;;;;5117800;28;20432;-72
2022/04/15 10:38:00;;;;;;;;;;;38.20;44.00;;;;;;5119905;28;19963;-70
2022/04/15 10:40:26;;;;;;;;;;;38.30;45.10;;;;;;5105173;28;20267;-74
2022/04/15 10:42:52;;;;;;;;;;;38.50;44.10;;;;;;5100611;28;19923;-73
2022/04/15 10:45:27;;;;;;;;;;;38.60;41.50;;;;;;5100844;28;19912;-73
2022/04/15 10:47:59;;;;;;;;;;;38.60;42.30;;;;;;5100156;28;19908;-78
2022/04/15 10:50:29;;;;;;;;;;;38.60;41.30;;;;;;5100041;28;19916;-73
2022/04/15 10:53:27;;;;;;;;;;;38.60;43.20;;;;;;5100921;28;19973;-72
2022/04/15 10:55:52;;;;;;;;;;;38.80;43.50;;;;;;5025388;28;19920;-71
2022/04/15 10:58:19;;;;;;;;;;;39.00;43.20;;;;;;5100301;28;19908;-70
2022/04/15 11:01:14;;;;;;;;;;;39.20;41.70;;;;;;5104195;28;19908;-69
2022/04/15 11:03:40;;;;;;;;;;;39.20;41.90;;;;;;5096196;28;19908;-74
2022/04/15 11:06:07;;;;;;;;;;;39.30;42.40;;;;;;5100763;28;19908;-74
2022/04/15 11:08:45;;;;;;;;;;;39.40;41.80;;;;;;5106249;28;19911;-72
2022/04/15 11:11:11;;;;;;;;;;;39.40;38.90;;;;;;5112909;28;19966;-73
2022/04/15 11:13:40;;;;;;;;;;;39.30;39.80;;;;;;5090635;28;19909;-74
2022/04/15 11:16:12;;;;;;;;;;;39.10;39.00;;;;;;5086629;28;19950;-70
2022/04/15 11:18:54;;;;;;;;;;;39.00;40.70;;;;;;5077049;28;19915;-72
2022/04/15 11:21:24;;;;;;;;;;;39.20;41.40;;;;;;5099924;28;19908;-74
2022/04/15 11:23:51;;;;;;;;;;;39.30;40.60;;;;;;5097574;28;19909;-71
2022/04/15 11:26:18;;;;;;;;;;;39.50;41.10;;;;;;5099744;28;19965;-72
2022/04/15 11:28:45;;;;;;;;;;;39.50;40.90;;;;;;5093318;28;20363;-72
2022/04/15 11:31:21;;;;;;;;;;;39.60;41.20;;;;;;5099259;28;19961;-71
2022/04/15 11:33:46;;;;;;;;;;;39.70;39.90;;;;;;5106160;28;20342;-72
2022/04/15 11:36:12;;;;;;;;;;;39.70;39.50;;;;;;5099386;28;19908;-71
2022/04/15 11:38:38;;;;;;;;;;;39.50;38.20;;;;;;5099254;28;19908;-72
2022/04/15 11:41:04;;;;;;;;;;;39.30;38.70;;;;;;5106216;28;19909;-73
2022/04/15 11:43:30;;;;;;;;;;;39.30;39.70;;;;;;5108663;28;19937;-74
2022/04/15 11:45:55;;;;;;;;;;;39.30;39.80;;;;;;5117764;28;19918;-74
2022/04/15 11:48:22;;;;;;;;;;;39.40;40.20;;;;;;5119018;28;19919;-72
2022/04/15 11:50:50;;;;;;;;;;;39.40;40.20;;;;;;5114645;28;19915;-72
2022/04/15 11:53:15;;;;;;;;;;;39.50;39.50;;;;;;5103745;28;19909;-73
2022/04/15 11:56:01;;;;;;;;;;;39.50;39.20;;;;;;5101918;28;19915;-72
2022/04/15 11:58:33;;;;;;;;;;;39.30;37.00;;;;;;5113170;28;20002;-71
2022/04/15 12:00:59;;;;;;;;;;;39.20;38.30;;;;;;5115351;28;19908;-72
2022/04/15 12:03:26;;;;;;;;;;;39.00;38.80;;;;;;5109018;28;20366;-72
2022/04/15 12:05:52;;;;;;;;;;;38.90;37.90;;;;;;5093643;28;19912;-72
2022/04/15 12:08:19;;;;;;;;;;;38.70;37.70;;;;;;5103191;28;19911;-72
2022/04/15 12:10:46;;;;;;;;;;;38.70;39.00;;;;;;5119422;28;19912;-73
2022/04/15 12:13:13;;;;;;;;;;;38.60;37.80;;;;;;5109463;28;19916;-74
2022/04/15 12:15:39;;;;;;;;;;;38.60;38.40;;;;;;5077698;28;20397;-71
2022/04/15 12:18:05;;;;;;;;;;;38.30;37.30;;;;;;5103236;28;19920;-72
2022/04/15 12:20:35;;;;;;;;;;;37.90;38.30;;;;;;5102599;28;19908;-70
2022/04/15 12:23:01;;;;;;;;;;;37.30;37.90;;;;;;5111307;28;19912;-71
2022/04/15 12:26:06;;;;;;;;;;;36.60;37.50;;;;;;5103564;28;19912;-73
2022/04/15 12:29:47;;;;;;;;;;;36.00;38.10;;;;;;5102586;28;19934;-72
2022/04/15 12:30:59;;;;;;;;;;;35.30;38.80;;;;;;5115481;28;19912;-73
2022/04/15 12:33:25;;;;;;;;;;;34.60;38.70;;;;;;5110318;28;19920;-73
2022/04/15 12:36:01;;;;;;;;;;;34.10;39.90;;;;;;5098097;28;19971;-74
2022/04/15 12:38:28;;;;;;;;;;;34.00;40.10;;;;;;5098304;28;20301;-71
2022/04/15 12:41:00;;;;;;;;;;;34.10;40.20;;;;;;5102511;28;19933;-72
2022/04/15 12:43:25;;;;;;;;;;;34.30;40.80;;;;;;5085990;28;19919;-73
2022/04/15 12:45:53;;;;;;;;;;;34.40;39.20;;;;;;5097221;28;19908;-73
2022/04/15 12:48:29;;;;;;;;;;;34.40;38.80;;;;;;5095129;27;19919;-72
2022/04/15 12:50:58;;;;;;;;;;;34.00;38.80;;;;;;5078437;28;19912;-73
2022/04/15 12:53:25;;;;;;;;;;;33.70;39.20;;;;;;5072933;28;19963;-71
2022/04/15 12:55:52;;;;;;;;;;;33.20;39.30;;;;;;5074009;28;19982;-71
2022/04/15 12:58:21;;;;;;;;;;;32.70;38.90;;;;;;5074592;28;19913;-71
2022/04/15 13:00:51;;;;;;;;;;;32.10;38.80;;;;;;5074158;28;19912;-71
2022/04/15 13:03:17;;;;;;;;;;;31.50;39.20;;;;;;5074378;28;19908;-71
2022/04/15 13:05:44;;;;;;;;;;;31.10;39.90;;;;;;5073838;28;19920;-71
2022/04/15 13:08:10;;;;;;;;;;;30.80;40.70;;;;;;5073181;28;19947;-72
2022/04/15 13:10:35;;;;;;;;;;;30.60;40.60;;;;;;5065327;28;19913;-71
2022/04/15 13:13:01;;;;;;;;;;;30.50;41.00;;;;;;5070322;28;19966;-71
2022/04/15 13:15:27;;;;;;;;;;;30.50;41.30;;;;;;5070679;28;19963;-71
2022/04/15 13:17:52;;;;;;;;;;;30.50;41.20;;;;;;5073401;28;19909;-71
2022/04/15 13:20:18;;;;;;;;;;;30.50;41.50;;;;;;5073472;28;20724;-71
2022/04/15 13:22:45;;;;;;;;;;;30.50;41.80;;;;;;5081933;28;20371;-71
2022/04/15 13:25:10;;;;;;;;;;;30.50;40.70;;;;;;5073725;28;19909;-71
2022/04/15 13:27:36;;;;;;;;;;;30.50;40.60;;;;;;5073247;28;19913;-72
2022/04/15 13:30:03;;;;;;;;;;;30.40;40.40;;;;;;5073460;28;19909;-72
2022/04/15 13:32:29;;;;;;;;;;;30.30;40.40;;;;;;5073137;28;19927;-71
2022/04/15 13:34:54;;;;;;;;;;;30.20;40.20;;;;;;5073392;28;19995;-72
2022/04/15 13:37:21;;;;;;;;;;;30.10;40.40;;;;;;5072643;28;19909;-71
2022/04/15 13:39:47;;;;;;;;;;;30.00;39.60;;;;;;5073253;28;19917;-71
2022/04/15 13:42:13;;;;;;;;;;;29.80;40.50;;;;;;5073250;28;20283;-71
2022/04/15 13:44:38;;;;;;;;;;;29.60;40.80;;;;;;5076939;28;19909;-71
2022/04/15 13:47:04;;;;;;;;;;;29.50;41.40;;;;;;5081817;28;19925;-71
2022/04/15 13:49:31;;;;;;;;;;;29.40;41.80;;;;;;5093371;28;20063;-71
2022/04/15 13:51:57;;;;;;;;;;;29.30;41.40;;;;;;5085521;28;19920;-71
2022/04/15 13:57:07;;;;;;;;;;;28.90;41.50;;;;;;5093376;28;19915;-71
2022/04/15 13:59:33;;;;;;;;;;;28.70;42.10;;;;;;5081232;28;19909;-71
2022/04/15 14:01:58;;;;;;;;;;;28.50;42.30;;;;;;5079943;28;19916;-72
2022/04/15 14:04:24;;;;;;;;;;;28.30;41.80;;;;;;5080330;28;19918;-71
2022/04/15 14:06:50;;;;;;;;;;;28.10;42.30;;;;;;5080234;28;19912;-71
2022/04/15 14:09:17;;;;;;;;;;;27.90;42.40;;;;;;5079392;28;21586;-73
2022/04/15 14:11:46;;;;;;;;;;;27.70;42.10;;;;;;5079768;28;19919;-70
2022/04/15 14:14:15;;;;;;;;;;;27.50;42.20;;;;;;5079162;28;19916;-70
2022/04/15 14:16:41;;;;;;;;;;;27.20;42.30;;;;;;5078388;28;19943;-70
2022/04/15 14:19:09;;;;;;;;;;;27.10;43.20;;;;;;5078537;28;19912;-70
2022/04/15 14:21:35;;;;;;;;;;;26.90;43.10;;;;;;5079473;28;19991;-70